Guanaja, Honduras
Current Conditions -  °F | °C
As of 7:00 AM on Monday 20 Oct 2014 (Local Time) from MHLC Reporting Station
Broken Clouds Broken Clouds  
Wind Chill: 26°   Ceiling: 20000
Heat Index: 28°   Visibility: 6mi
Dew Point: 24°   Wind: 0mph
Humidity: 89%   Direction: NA
Pressure: 29.85"   Gusts: NA
Location:  16.43°N, 85.88°W
Report Text: MHLC 201300Z 00000KT 9999 FEW024CB BKN200 26/24 Q1011 A2986NOSIG
Loading
Personal Weather Stations






























Interactive Weather Map
Tropical Storm Tracking
New forecast layout! Learn more

10-Day Weather Forecast

Advertisements
Track Severe Weather on mobile